Terminal Aerodrome Forecast
Issued by NWS

Home | Current Version | Previous Version | Text Only | Print | Product List | Glossary On
Versions: 1 2 3 4 5 6 7 8 9 10 11 12 13 14 15
000
FTUS43 KDLH 162100 AAA
TAFBRD
TAF AMD
KBRD 162105Z 1621/1718 25005KT P6SM BKN050 BKN090
     FM162300 30005KT P6SM BKN080
     FM170400 33006KT P6SM SCT080
     FM171400 VRB04KT P6SM SCT140=

USA.gov is the U.S. government's official web portal to all federal, state and local government web resources and services.